Time;durP1;ratioP1;P1;durP2;ratioP2;P2;SDS_P1;SDS_P2;PMS_P1;PMS_P2;Temp;Humidity;BMP_temperature;BMP_pressure;BME280_temperature;BME280_humidity;BME280_pressure;Samples;Min_cycle;Max_cycle;Signal;HPM_P1;HPM_P2
2023/06/30 00:01:48;;;;;;;8.88;7.97;;;21.20;99.90;;;;;;5028960;28;20064;-42
2023/06/30 00:04:22;;;;;;;9.50;8.43;;;21.20;99.90;;;;;;5015403;28;20041;-42
2023/06/30 00:06:50;;;;;;;10.80;7.57;;;21.20;99.90;;;;;;5017490;28;20080;-40
2023/06/30 00:09:21;;;;;;;11.13;8.25;;;21.20;99.90;;;;;;5011733;28;20095;-42
2023/06/30 00:11:51;;;;;;;9.65;7.97;;;21.20;99.90;;;;;;5017858;28;20530;-42
2023/06/30 00:14:19;;;;;;;8.88;7.95;;;21.20;99.90;;;;;;5006960;28;20099;-42
2023/06/30 00:16:47;;;;;;;9.70;8.07;;;21.30;99.90;;;;;;5028465;28;20065;-42
2023/06/30 00:19:15;;;;;;;9.02;8.13;;;21.30;99.90;;;;;;5027157;28;20354;-41
2023/06/30 00:21:42;;;;;;;9.10;7.95;;;21.30;99.90;;;;;;5030271;28;20049;-42
2023/06/30 00:24:13;;;;;;;9.02;8.05;;;21.30;99.90;;;;;;5027603;28;20065;-41
2023/06/30 00:26:41;;;;;;;8.40;7.60;;;21.30;99.90;;;;;;5029772;28;20053;-42
2023/06/30 00:29:08;;;;;;;9.35;8.45;;;21.30;99.90;;;;;;5021772;28;20049;-42
2023/06/30 00:31:36;;;;;;;9.57;8.15;;;21.30;99.90;;;;;;5034774;28;20145;-42
2023/06/30 00:34:03;;;;;;;10.30;8.32;;;21.30;99.90;;;;;;5031215;28;20053;-40
2023/06/30 00:36:31;;;;;;;11.30;8.20;;;21.30;99.90;;;;;;5031795;28;20103;-42
2023/06/30 00:38:59;;;;;;;8.60;7.80;;;21.20;99.90;;;;;;5029328;28;20052;-43
2023/06/30 00:41:28;;;;;;;11.82;8.82;;;21.20;99.90;;;;;;5028210;28;20054;-42
2023/06/30 00:43:56;;;;;;;10.00;7.88;;;21.20;99.90;;;;;;5022097;28;20080;-41
2023/06/30 00:46:23;;;;;;;10.40;8.38;;;21.10;99.90;;;;;;5027409;28;20053;-41
2023/06/30 00:48:51;;;;;;;8.73;7.82;;;21.10;99.90;;;;;;5031894;28;20059;-41
2023/06/30 00:51:19;;;;;;;9.18;8.25;;;21.10;99.90;;;;;;5018183;28;20501;-39
2023/06/30 00:53:47;;;;;;;9.73;8.77;;;21.10;99.90;;;;;;5020819;28;20069;-38
2023/06/30 00:56:14;;;;;;;9.63;8.63;;;21.10;99.90;;;;;;5013139;28;20465;-37
2023/06/30 00:58:42;;;;;;;10.32;8.30;;;21.00;99.90;;;;;;5012120;28;20081;-38
2023/06/30 01:01:33;;;;;;;11.35;7.90;;;21.00;99.90;;;;;;5015232;28;20050;-39
2023/06/30 01:04:27;;;;;;;10.23;8.05;;;21.00;99.90;;;;;;5027487;28;20072;-36
2023/06/30 01:07:33;;;;;;;8.90;8.00;;;20.90;99.90;;;;;;5023235;28;20046;-37
2023/06/30 01:10:07;;;;;;;10.63;8.27;;;20.90;99.90;;;;;;5010793;28;20114;-39
2023/06/30 01:12:35;;;;;;;9.80;8.48;;;20.90;99.90;;;;;;5021089;28;20045;-40
2023/06/30 01:15:04;;;;;;;8.07;7.35;;;20.90;99.90;;;;;;5020464;28;20050;-37
2023/06/30 01:17:34;;;;;;;10.73;8.40;;;20.90;99.90;;;;;;5026787;28;20095;-38
2023/06/30 01:20:04;;;;;;;8.35;7.55;;;20.90;99.90;;;;;;5032276;28;20046;-38
2023/06/30 01:23:13;;;;;;;9.40;8.40;;;20.90;99.90;;;;;;5010289;28;20091;-36
2023/06/30 01:25:41;;;;;;;9.15;8.25;;;20.90;99.90;;;;;;4972024;28;20622;-38
2023/06/30 01:28:10;;;;;;;8.77;7.88;;;20.90;99.90;;;;;;4971936;28;20575;-38
2023/06/30 01:30:38;;;;;;;10.10;7.75;;;20.80;99.90;;;;;;4954866;28;20626;-39
2023/06/30 01:33:05;;;;;;;8.77;7.75;;;20.70;99.90;;;;;;4972606;28;20050;-40
2023/06/30 01:35:33;;;;;;;9.80;8.80;;;20.70;99.90;;;;;;4974199;28;20367;-38
2023/06/30 01:38:02;;;;;;;9.18;8.18;;;20.70;99.90;;;;;;4985914;28;20070;-41
2023/06/30 01:40:30;;;;;;;11.32;8.55;;;20.70;99.90;;;;;;4975372;28;20039;-40
2023/06/30 01:42:57;;;;;;;11.23;8.73;;;20.60;99.90;;;;;;4975541;28;20030;-39
2023/06/30 01:45:26;;;;;;;12.30;8.50;;;20.60;99.90;;;;;;4990760;28;20030;-43
2023/06/30 01:47:55;;;;;;;11.25;8.57;;;20.50;99.90;;;;;;4971822;28;20074;-37
2023/06/30 01:50:22;;;;;;;10.20;8.90;;;20.50;99.90;;;;;;4975797;28;20520;-36
2023/06/30 01:52:50;;;;;;;11.43;8.05;;;20.40;99.90;;;;;;4954689;28;20055;-39
2023/06/30 01:55:18;;;;;;;11.05;8.27;;;20.40;99.90;;;;;;4970515;28;20074;-36
2023/06/30 01:57:45;;;;;;;10.18;8.45;;;20.40;99.90;;;;;;4982718;28;20046;-40
2023/06/30 02:00:13;;;;;;;10.80;8.40;;;20.40;99.90;;;;;;4963381;28;20043;-41
2023/06/30 02:02:41;;;;;;;10.45;8.68;;;20.40;99.90;;;;;;5000722;28;20046;-40
2023/06/30 02:05:12;;;;;;;9.93;8.90;;;20.30;99.90;;;;;;5020587;28;20462;-41
2023/06/30 02:07:39;;;;;;;12.20;8.02;;;20.30;99.90;;;;;;5026439;28;20457;-39
2023/06/30 02:10:08;;;;;;;9.25;8.32;;;20.30;99.90;;;;;;5021978;28;20049;-40
2023/06/30 02:12:37;;;;;;;10.07;7.97;;;20.30;99.90;;;;;;5029533;28;20098;-39
2023/06/30 02:15:04;;;;;;;9.52;8.52;;;20.20;99.90;;;;;;5012244;28;20049;-41
2023/06/30 02:17:33;;;;;;;9.95;8.82;;;20.20;99.90;;;;;;5024643;28;20113;-43
2023/06/30 02:20:06;;;;;;;10.93;9.18;;;20.20;99.90;;;;;;5009274;28;20053;-40
2023/06/30 02:22:34;;;;;;;9.02;8.10;;;20.20;99.90;;;;;;5023364;28;20058;-39
2023/06/30 02:25:01;;;;;;;12.00;8.77;;;20.20;99.90;;;;;;5028940;28;20056;-42
2023/06/30 02:27:29;;;;;;;11.35;8.20;;;20.10;99.90;;;;;;5032088;28;20041;-42
2023/06/30 02:30:04;;;;;;;9.23;8.32;;;20.10;99.90;;;;;;5024624;28;20069;-42
2023/06/30 02:32:39;;;;;;;9.10;8.18;;;20.10;99.90;;;;;;5019851;28;20043;-40
2023/06/30 02:35:08;;;;;;;8.75;7.82;;;20.00;99.90;;;;;;5014046;28;20065;-41
2023/06/30 02:37:36;;;;;;;10.05;8.77;;;20.00;99.90;;;;;;5014783;28;20226;-43
2023/06/30 02:40:04;;;;;;;9.70;8.80;;;20.00;99.90;;;;;;5018976;28;20111;-38
2023/06/30 02:42:32;;;;;;;9.95;8.45;;;19.90;99.90;;;;;;5019411;28;20046;-42
2023/06/30 02:44:59;;;;;;;10.45;9.25;;;19.80;99.90;;;;;;5030833;28;20050;-42
2023/06/30 02:47:27;;;;;;;11.32;9.35;;;19.80;99.90;;;;;;5033976;28;20053;-42
2023/06/30 02:49:54;;;;;;;10.57;9.48;;;19.80;99.90;;;;;;5023071;28;20100;-41
2023/06/30 02:52:22;;;;;;;9.85;8.85;;;19.80;99.90;;;;;;5016065;28;20073;-42
2023/06/30 02:54:49;;;;;;;9.77;8.80;;;19.70;99.90;;;;;;5009088;28;20111;-42
2023/06/30 02:57:17;;;;;;;10.38;9.30;;;19.70;99.90;;;;;;5021374;28;20049;-39
2023/06/30 02:59:44;;;;;;;11.15;9.73;;;19.70;99.90;;;;;;5028668;28;20451;-42
2023/06/30 03:02:12;;;;;;;10.88;9.23;;;19.70;99.90;;;;;;5021990;28;20410;-42
2023/06/30 03:04:39;;;;;;;11.98;10.02;;;19.60;99.90;;;;;;5028865;28;20117;-42
2023/06/30 03:07:07;;;;;;;11.75;10.55;;;19.60;99.90;;;;;;5028320;28;20041;-41
2023/06/30 03:09:37;;;;;;;12.00;10.73;;;19.60;99.90;;;;;;5019478;28;20037;-40
2023/06/30 03:12:04;;;;;;;11.88;10.70;;;19.60;99.90;;;;;;5021075;28;20129;-41
2023/06/30 03:14:32;;;;;;;12.35;10.77;;;19.50;99.90;;;;;;5023375;28;20041;-42
2023/06/30 03:16:59;;;;;;;11.82;10.52;;;19.50;99.90;;;;;;5028411;28;20065;-42
2023/06/30 03:19:26;;;;;;;12.50;10.18;;;19.50;99.90;;;;;;5019744;28;20038;-44
2023/06/30 03:21:54;;;;;;;13.32;10.05;;;19.50;99.90;;;;;;5018111;28;20084;-40
2023/06/30 03:24:21;;;;;;;12.70;10.90;;;19.40;99.90;;;;;;5009434;28;20049;-42
2023/06/30 03:26:48;;;;;;;12.00;10.30;;;19.50;99.90;;;;;;5007765;28;20073;-41
2023/06/30 03:29:22;;;;;;;11.10;10.00;;;19.50;99.90;;;;;;5003897;28;20050;-42
2023/06/30 03:31:52;;;;;;;12.07;10.57;;;19.50;99.90;;;;;;5025180;28;20498;-42
2023/06/30 03:34:19;;;;;;;11.00;9.88;;;19.50;99.90;;;;;;5011304;28;20033;-43
2023/06/30 03:36:49;;;;;;;12.65;10.88;;;19.50;99.90;;;;;;5027626;28;20541;-41
2023/06/30 03:39:18;;;;;;;14.45;10.60;;;19.40;99.90;;;;;;5027305;28;20029;-41
2023/06/30 03:41:47;;;;;;;12.05;9.88;;;19.50;99.90;;;;;;5020186;28;20068;-38
2023/06/30 03:44:14;;;;;;;12.73;10.75;;;19.50;99.90;;;;;;5019633;28;20050;-40
2023/06/30 03:46:41;;;;;;;11.93;10.70;;;19.50;99.90;;;;;;5023173;28;20383;-40
2023/06/30 03:49:09;;;;;;;12.85;11.52;;;19.50;99.90;;;;;;5008201;28;20438;-42
2023/06/30 03:51:38;;;;;;;15.20;11.52;;;19.50;99.90;;;;;;5013398;28;20320;-41
2023/06/30 03:54:06;;;;;;;16.40;13.40;;;19.60;99.90;;;;;;5018527;28;20482;-40
2023/06/30 03:56:36;;;;;;;14.23;12.63;;;19.60;99.90;;;;;;5019603;28;20087;-43
2023/06/30 03:59:03;;;;;;;15.38;11.70;;;19.70;99.90;;;;;;5025497;28;20122;-40
2023/06/30 04:01:33;;;;;;;11.85;10.18;;;19.70;99.90;;;;;;5027717;28;20076;-42
2023/06/30 04:04:02;;;;;;;16.80;10.00;;;19.80;99.90;;;;;;5019443;28;20634;-41
2023/06/30 04:06:30;;;;;;;11.60;10.45;;;19.80;99.90;;;;;;5035754;28;20069;-40
2023/06/30 04:08:58;;;;;;;11.95;10.43;;;19.90;99.90;;;;;;5023223;28;20053;-42
2023/06/30 04:11:25;;;;;;;15.13;10.68;;;19.90;99.90;;;;;;5033532;28;20486;-40
2023/06/30 04:13:53;;;;;;;11.98;10.77;;;20.00;99.90;;;;;;5028032;28;20041;-40
2023/06/30 04:16:20;;;;;;;12.52;10.85;;;20.00;99.90;;;;;;5020623;28;20048;-41
2023/06/30 04:18:47;;;;;;;11.63;10.25;;;20.00;99.90;;;;;;5019753;28;20076;-41
2023/06/30 04:21:17;;;;;;;13.43;11.00;;;20.10;99.90;;;;;;5023485;28;20208;-42
2023/06/30 04:23:44;;;;;;;13.98;11.48;;;20.10;99.90;;;;;;5025983;28;20152;-41
2023/06/30 04:26:11;;;;;;;15.30;12.85;;;20.20;99.90;;;;;;5007084;28;20477;-40
2023/06/30 04:28:39;;;;;;;15.60;14.00;;;20.20;99.90;;;;;;5017791;28;20050;-41
2023/06/30 04:31:06;;;;;;;28.63;23.58;;;20.20;99.90;;;;;;5030159;28;20073;-42
2023/06/30 04:33:34;;;;;;;19.50;16.30;;;20.30;99.90;;;;;;5027116;28;20060;-42
2023/06/30 04:36:02;;;;;;;14.82;13.32;;;20.30;99.90;;;;;;5031182;28;20041;-42
2023/06/30 04:38:30;;;;;;;15.32;13.50;;;20.30;99.90;;;;;;5026740;28;20037;-42
2023/06/30 04:40:57;;;;;;;14.40;12.50;;;20.40;99.90;;;;;;5030604;28;20045;-41
2023/06/30 04:43:24;;;;;;;13.35;12.13;;;20.40;99.90;;;;;;5016649;28;20038;-42
2023/06/30 04:45:51;;;;;;;13.40;11.82;;;20.50;99.90;;;;;;5019421;28;20080;-39
2023/06/30 04:48:19;;;;;;;12.80;11.50;;;20.60;99.90;;;;;;5006583;28;20042;-41
2023/06/30 04:50:46;;;;;;;13.82;12.43;;;20.60;99.90;;;;;;5011543;28;20054;-42
2023/06/30 04:53:13;;;;;;;12.77;10.43;;;20.60;99.90;;;;;;5021221;28;20454;-42
2023/06/30 04:55:41;;;;;;;14.95;12.70;;;20.80;99.90;;;;;;5012203;28;20720;-41
2023/06/30 04:58:08;;;;;;;13.40;12.05;;;20.80;99.90;;;;;;5031105;28;20165;-41
2023/06/30 05:00:36;;;;;;;13.38;12.02;;;20.80;99.90;;;;;;5033782;28;20066;-42
2023/06/30 05:03:03;;;;;;;14.18;12.52;;;20.90;99.90;;;;;;5030592;28;20511;-41
2023/06/30 05:05:31;;;;;;;14.50;11.73;;;21.00;99.90;;;;;;5018404;28;20041;-40
2023/06/30 05:07:58;;;;;;;17.73;11.73;;;21.00;99.90;;;;;;5022419;28;20108;-40
2023/06/30 05:10:26;;;;;;;13.20;11.10;;;21.10;99.90;;;;;;5024133;28;20441;-41
2023/06/30 05:12:53;;;;;;;15.35;12.85;;;21.10;99.90;;;;;;5024549;28;20115;-41
2023/06/30 05:15:20;;;;;;;13.32;11.15;;;21.10;99.90;;;;;;5023952;28;20065;-42
2023/06/30 05:17:48;;;;;;;16.98;12.45;;;21.10;99.90;;;;;;5028981;28;20133;-41
2023/06/30 05:20:16;;;;;;;14.55;12.90;;;21.20;99.90;;;;;;5020561;28;20165;-42
2023/06/30 05:22:44;;;;;;;13.90;12.05;;;21.40;99.90;;;;;;5032574;28;20042;-40
2023/06/30 05:25:11;;;;;;;18.70;12.48;;;21.40;99.90;;;;;;5036004;28;20047;-42
2023/06/30 05:27:38;;;;;;;14.45;12.38;;;21.50;99.90;;;;;;5029666;28;20045;-41
2023/06/30 05:30:06;;;;;;;14.20;12.30;;;21.70;99.90;;;;;;5034326;28;20049;-42
2023/06/30 05:32:33;;;;;;;13.77;11.90;;;21.70;99.90;;;;;;5033628;28;20048;-40
2023/06/30 05:35:01;;;;;;;17.23;12.73;;;21.80;99.90;;;;;;5020632;28;20057;-42
2023/06/30 05:37:28;;;;;;;13.30;11.95;;;21.90;99.90;;;;;;5023755;28;20065;-41
2023/06/30 05:39:55;;;;;;;15.07;12.60;;;22.00;99.90;;;;;;5027405;28;20045;-44
2023/06/30 05:42:23;;;;;;;14.02;11.88;;;22.20;99.90;;;;;;5025796;28;20060;-42
2023/06/30 05:44:50;;;;;;;15.05;12.82;;;22.30;99.90;;;;;;5025734;28;20058;-43
2023/06/30 05:47:18;;;;;;;14.75;13.25;;;22.40;99.90;;;;;;5024328;28;20050;-42
2023/06/30 05:49:46;;;;;;;14.93;12.32;;;22.60;99.90;;;;;;5025753;28;20129;-42
2023/06/30 05:52:13;;;;;;;16.02;12.82;;;22.80;99.90;;;;;;5024821;28;20052;-43
2023/06/30 05:54:41;;;;;;;17.35;13.00;;;23.00;99.90;;;;;;5027412;28;20046;-44
2023/06/30 05:57:08;;;;;;;20.95;18.83;;;23.20;99.90;;;;;;5018558;28;20482;-43
2023/06/30 05:59:36;;;;;;;18.27;15.55;;;23.30;99.90;;;;;;5027884;28;20095;-43
2023/06/30 06:02:03;;;;;;;15.77;14.13;;;23.40;99.90;;;;;;5026616;28;20046;-42
2023/06/30 06:04:30;;;;;;;15.75;14.15;;;23.50;99.90;;;;;;5024955;28;20117;-39
2023/06/30 06:07:02;;;;;;;16.40;13.10;;;23.50;99.90;;;;;;5024334;28;20055;-43
2023/06/30 06:09:30;;;;;;;16.30;14.48;;;23.70;99.90;;;;;;5025121;28;20301;-43
2023/06/30 06:11:57;;;;;;;14.98;12.68;;;23.50;99.90;;;;;;5021067;28;20050;-44
2023/06/30 06:14:24;;;;;;;20.58;15.10;;;23.50;99.90;;;;;;5023897;28;20436;-43
2023/06/30 06:16:52;;;;;;;17.30;14.88;;;23.60;99.90;;;;;;5024391;28;20100;-43
2023/06/30 06:19:20;;;;;;;18.48;15.80;;;23.70;99.90;;;;;;5016117;28;20049;-41
2023/06/30 06:21:48;;;;;;;22.02;16.98;;;23.70;99.90;;;;;;5020998;28;20073;-43
2023/06/30 06:24:18;;;;;;;16.98;15.15;;;23.80;99.90;;;;;;5028375;28;20033;-43
2023/06/30 06:26:45;;;;;;;17.38;14.27;;;23.80;99.90;;;;;;5016132;28;20129;-43
2023/06/30 06:29:18;;;;;;;16.85;15.05;;;23.80;99.90;;;;;;5026644;28;20045;-43
2023/06/30 06:31:46;;;;;;;14.10;12.52;;;23.80;99.90;;;;;;5026071;28;20130;-43
2023/06/30 06:34:13;;;;;;;15.93;12.43;;;23.80;99.90;;;;;;5026756;28;20049;-41
2023/06/30 06:36:40;;;;;;;18.55;13.35;;;23.80;99.90;;;;;;5024038;28;20049;-43
2023/06/30 06:39:08;;;;;;;20.13;15.88;;;23.80;99.90;;;;;;5023804;28;20125;-43
2023/06/30 06:41:35;;;;;;;17.60;14.48;;;23.80;99.90;;;;;;5022279;28;20049;-44
2023/06/30 06:44:02;;;;;;;19.38;14.82;;;23.90;99.90;;;;;;5023741;28;20521;-42
2023/06/30 06:46:30;;;;;;;16.10;14.52;;;23.90;99.90;;;;;;5028912;28;20060;-44
2023/06/30 06:48:57;;;;;;;18.98;13.85;;;23.90;99.90;;;;;;5017751;28;20367;-42
2023/06/30 06:51:24;;;;;;;17.85;12.73;;;23.90;99.90;;;;;;5029876;28;20030;-39
2023/06/30 06:53:53;;;;;;;18.15;13.80;;;24.00;99.90;;;;;;5021291;28;20399;-42
2023/06/30 06:56:21;;;;;;;13.70;12.35;;;24.00;99.90;;;;;;5028395;28;20565;-40
2023/06/30 06:58:49;;;;;;;15.38;13.75;;;24.10;99.90;;;;;;5021319;28;20053;-41
2023/06/30 07:01:17;;;;;;;17.38;15.07;;;24.30;99.90;;;;;;5029974;28;20101;-39
2023/06/30 07:03:44;;;;;;;19.42;15.23;;;24.40;99.90;;;;;;5029219;28;20049;-41
2023/06/30 07:06:11;;;;;;;19.45;13.20;;;24.40;99.90;;;;;;5031468;28;20054;-39
2023/06/30 07:08:39;;;;;;;12.05;10.75;;;24.40;99.90;;;;;;5021076;28;20092;-42
2023/06/30 07:11:06;;;;;;;15.98;12.18;;;24.50;99.90;;;;;;5029984;28;20296;-41
2023/06/30 07:13:34;;;;;;;14.15;12.70;;;24.70;99.90;;;;;;5023725;28;20069;-42
2023/06/30 07:16:01;;;;;;;15.40;13.80;;;24.80;99.90;;;;;;5030251;28;20445;-40
2023/06/30 07:18:29;;;;;;;16.67;13.57;;;25.00;99.90;;;;;;5026074;28;20068;-37
2023/06/30 07:20:57;;;;;;;20.08;14.15;;;25.00;99.90;;;;;;5024316;28;20033;-42
2023/06/30 07:23:25;;;;;;;16.98;13.63;;;25.00;99.90;;;;;;5027064;28;20311;-39
2023/06/30 07:25:55;;;;;;;18.23;14.35;;;25.20;99.90;;;;;;5032029;28;20522;-38
2023/06/30 07:28:22;;;;;;;20.67;13.65;;;25.30;99.90;;;;;;5024692;28;20042;-39
2023/06/30 07:30:49;;;;;;;18.95;13.35;;;25.40;99.90;;;;;;5027146;28;20053;-42
2023/06/30 07:33:17;;;;;;;15.23;12.52;;;25.70;99.90;;;;;;5023448;28;20508;-41
2023/06/30 07:35:45;;;;;;;15.88;14.18;;;25.70;99.90;;;;;;5024778;28;20135;-44
2023/06/30 07:38:13;;;;;;;13.77;12.48;;;25.70;99.90;;;;;;5021612;28;20038;-40
2023/06/30 07:40:40;;;;;;;15.77;13.35;;;25.80;99.90;;;;;;5034369;28;20060;-41
2023/06/30 07:43:22;;;;;;;14.25;12.43;;;25.80;99.90;;;;;;5054786;28;20057;-41
2023/06/30 07:45:49;;;;;;;14.63;11.65;;;25.90;99.90;;;;;;5045046;28;20057;-41
2023/06/30 07:48:17;;;;;;;14.25;12.68;;;26.00;99.90;;;;;;5027492;28;20045;-40
2023/06/30 07:50:44;;;;;;;17.02;14.02;;;26.10;99.90;;;;;;5035715;28;20054;-40
2023/06/30 07:53:32;;;;;;;19.40;13.02;;;26.20;99.90;;;;;;5019872;28;20486;-37
2023/06/30 07:55:59;;;;;;;13.35;12.05;;;26.30;99.90;;;;;;5032104;28;20481;-38
2023/06/30 07:58:26;;;;;;;14.85;12.50;;;26.20;99.90;;;;;;5026494;28;20057;-40
2023/06/30 08:00:53;;;;;;;21.55;14.05;;;26.10;99.90;;;;;;5032563;28;20057;-38
2023/06/30 08:03:21;;;;;;;16.40;12.23;;;26.40;99.90;;;;;;5025509;28;20080;-39
2023/06/30 08:05:48;;;;;;;15.88;11.93;;;26.50;99.90;;;;;;5049237;28;20041;-38
2023/06/30 08:08:17;;;;;;;14.20;12.65;;;26.60;99.90;;;;;;5035977;28;20037;-40
2023/06/30 08:10:44;;;;;;;14.85;11.23;;;26.60;99.90;;;;;;5032439;28;20049;-43
2023/06/30 08:13:11;;;;;;;12.85;11.60;;;26.60;99.90;;;;;;5028567;28;20450;-39
2023/06/30 08:15:39;;;;;;;13.43;12.02;;;26.60;99.90;;;;;;5024766;28;20453;-40
2023/06/30 08:18:06;;;;;;;14.38;12.90;;;26.50;99.90;;;;;;5028131;28;20078;-42
2023/06/30 08:20:37;;;;;;;18.40;14.82;;;26.60;99.90;;;;;;5028493;28;20034;-41
2023/06/30 08:23:04;;;;;;;18.20;13.32;;;26.70;99.90;;;;;;5028824;28;20054;-40
2023/06/30 08:25:32;;;;;;;14.70;11.35;;;26.70;99.90;;;;;;5031492;28;20060;-38
2023/06/30 08:27:59;;;;;;;15.15;10.77;;;26.80;99.90;;;;;;5033405;28;20057;-41
2023/06/30 08:30:27;;;;;;;11.98;10.82;;;26.80;99.90;;;;;;5045610;28;20047;-41
2023/06/30 08:32:54;;;;;;;18.50;16.60;;;26.80;99.90;;;;;;5051736;28;20056;-40
2023/06/30 08:35:24;;;;;;;13.30;11.90;;;26.70;99.90;;;;;;5041303;28;20041;-37
2023/06/30 08:37:51;;;;;;;15.65;11.90;;;26.90;99.90;;;;;;5037442;28;20099;-38
2023/06/30 08:40:30;;;;;;;12.23;10.63;;;26.90;99.90;;;;;;5025284;28;20418;-41
2023/06/30 08:43:10;;;;;;;11.35;10.10;;;27.00;99.90;;;;;;5028086;28;20457;-41
2023/06/30 08:45:39;;;;;;;11.98;10.65;;;27.20;99.90;;;;;;5021353;28;20100;-43
2023/06/30 08:48:07;;;;;;;12.48;10.73;;;27.40;99.90;;;;;;5031907;28;20046;-39
2023/06/30 08:50:35;;;;;;;12.07;10.50;;;27.50;99.90;;;;;;5028725;28;20041;-40
2023/06/30 08:53:04;;;;;;;14.07;10.80;;;27.50;99.90;;;;;;5033883;28;20053;-41
2023/06/30 08:55:31;;;;;;;11.43;10.32;;;27.00;99.90;;;;;;5023670;28;20110;-39
2023/06/30 08:57:58;;;;;;;14.27;11.45;;;27.40;99.90;;;;;;5015659;28;20069;-38
2023/06/30 09:00:36;;;;;;;12.85;10.98;;;27.70;99.90;;;;;;5029071;28;20052;-42
2023/06/30 09:03:04;;;;;;;13.18;11.88;;;27.80;99.90;;;;;;5027512;28;20046;-41
2023/06/30 09:05:36;;;;;;;11.98;10.88;;;27.80;99.90;;;;;;5023628;28;20080;-42
2023/06/30 09:08:13;;;;;;;12.77;11.50;;;27.50;99.90;;;;;;5033945;28;20050;-43
2023/06/30 09:10:41;;;;;;;13.00;11.38;;;27.20;99.90;;;;;;5039596;28;20061;-42
2023/06/30 09:13:10;;;;;;;11.30;10.15;;;26.90;99.90;;;;;;5034128;28;20046;-41
2023/06/30 09:15:40;;;;;;;12.73;11.02;;;26.80;99.90;;;;;;5029071;28;20132;-39
2023/06/30 09:18:08;;;;;;;13.45;10.63;;;27.20;99.90;;;;;;5025968;28;20037;-38
2023/06/30 09:20:37;;;;;;;11.73;10.52;;;27.60;99.90;;;;;;5028906;28;20064;-39
2023/06/30 09:23:05;;;;;;;13.38;9.93;;;27.90;99.90;;;;;;5024026;28;20053;-36
2023/06/30 09:25:32;;;;;;;12.05;10.27;;;28.00;99.90;;;;;;5034033;28;20494;-41
2023/06/30 09:28:05;;;;;;;14.32;11.13;;;27.90;99.90;;;;;;5026679;28;20049;-41
2023/06/30 09:30:34;;;;;;;15.20;13.02;;;28.10;99.90;;;;;;5017612;28;20056;-40
2023/06/30 09:33:02;;;;;;;11.50;10.20;;;28.50;99.90;;;;;;5033027;28;20041;-40
2023/06/30 09:35:37;;;;;;;12.43;11.02;;;29.00;99.90;;;;;;5024278;28;20116;-38
2023/06/30 09:38:12;;;;;;;13.50;9.90;;;29.30;99.90;;;;;;5031496;28;20164;-40
2023/06/30 09:40:45;;;;;;;12.13;10.90;;;29.40;99.90;;;;;;5032520;28;20386;-40
2023/06/30 09:43:24;;;;;;;12.40;10.68;;;29.20;99.90;;;;;;5032083;28;20503;-38
2023/06/30 09:45:59;;;;;;;16.02;10.55;;;29.50;99.90;;;;;;5024523;28;20465;-39
2023/06/30 09:48:34;;;;;;;11.55;10.38;;;29.70;99.90;;;;;;5012148;28;20055;-39
2023/06/30 09:51:01;;;;;;;11.00;9.90;;;29.50;99.90;;;;;;5030136;28;20132;-38
2023/06/30 09:53:39;;;;;;;11.90;10.70;;;30.00;99.90;;;;;;5020566;28;20080;-39
2023/06/30 09:56:08;;;;;;;12.40;11.10;;;30.40;99.90;;;;;;5022386;28;20050;-39
2023/06/30 09:58:39;;;;;;;12.15;10.88;;;30.30;99.90;;;;;;5030515;28;20057;-40
2023/06/30 10:01:07;;;;;;;13.32;12.02;;;30.50;99.70;;;;;;5017049;28;20046;-38
2023/06/30 10:03:47;;;;;;;14.60;11.55;;;30.30;99.70;;;;;;5045148;28;20050;-39
2023/06/30 10:06:23;;;;;;;12.82;11.52;;;30.00;99.60;;;;;;5032807;28;20052;-39
2023/06/30 10:08:51;;;;;;;11.80;10.60;;;29.60;99.90;;;;;;5033674;28;20049;-40
2023/06/30 10:11:22;;;;;;;12.85;11.48;;;29.50;99.90;;;;;;5037627;28;20065;-39
2023/06/30 10:13:54;;;;;;;13.65;12.13;;;29.10;99.90;;;;;;5042850;28;20046;-42
2023/06/30 10:16:22;;;;;;;;;;;29.10;99.90;;;;;;5040264;28;20038;-41
2023/06/30 10:18:51;;;;;;;16.58;12.13;;;29.00;99.90;;;;;;5048288;28;19987;-42
2023/06/30 10:21:18;;;;;;;14.45;11.68;;;28.90;99.90;;;;;;5042236;28;20053;-43
2023/06/30 10:23:48;;;;;;;15.38;12.63;;;28.60;99.90;;;;;;5034949;28;20123;-41
2023/06/30 10:26:18;;;;;;;12.85;11.52;;;27.70;99.90;;;;;;5034039;28;20065;-39
2023/06/30 10:28:46;;;;;;;12.52;10.73;;;27.40;99.90;;;;;;5032185;28;20592;-40
2023/06/30 10:31:14;;;;;;;13.20;11.80;;;27.50;99.90;;;;;;5031496;28;20045;-43
2023/06/30 10:33:41;;;;;;;13.05;11.60;;;27.60;99.90;;;;;;5034445;28;20132;-40
2023/06/30 10:36:09;;;;;;;13.15;11.68;;;27.30;99.90;;;;;;5036356;28;20052;-41
2023/06/30 10:38:37;;;;;;;12.38;11.15;;;26.90;99.90;;;;;;5043126;28;20136;-43
2023/06/30 10:41:13;;;;;;;13.40;10.80;;;26.70;99.90;;;;;;5046164;28;20075;-40
2023/06/30 10:44:09;;;;;;;13.45;11.23;;;26.20;99.90;;;;;;5034635;28;20049;-40
2023/06/30 10:46:53;;;;;;;14.75;11.32;;;25.50;99.90;;;;;;5035305;28;20041;-41
2023/06/30 10:49:29;;;;;;;16.77;12.25;;;25.10;99.90;;;;;;5019989;28;20076;-39
2023/06/30 10:51:58;;;;;;;17.65;12.75;;;24.50;99.90;;;;;;5024510;28;20565;-38
2023/06/30 10:54:31;;;;;;;17.15;13.25;;;24.20;99.90;;;;;;5031338;28;20047;-41
2023/06/30 10:57:19;;;;;;;20.45;14.27;;;23.70;99.90;;;;;;5016995;28;20077;-42
2023/06/30 11:00:02;;;;;;;19.70;14.13;;;23.40;99.90;;;;;;5028907;28;20049;-39
2023/06/30 11:02:34;;;;;;;18.65;14.35;;;22.90;99.90;;;;;;5028397;28;20127;-40
2023/06/30 11:05:25;;;;;;;17.90;13.07;;;22.90;99.90;;;;;;5034769;28;20046;-42
2023/06/30 11:08:01;;;;;;;19.88;14.90;;;23.10;99.90;;;;;;5033886;28;20041;-40
2023/06/30 11:10:32;;;;;;;18.48;15.00;;;23.40;99.90;;;;;;5023431;28;20080;-37
2023/06/30 11:13:09;;;;;;;22.00;14.80;;;23.60;99.90;;;;;;5029414;28;20116;-40
2023/06/30 11:15:39;;;;;;;19.75;15.82;;;23.90;99.90;;;;;;5017233;28;20096;-43
2023/06/30 11:18:20;;;;;;;18.80;15.07;;;24.20;99.90;;;;;;5033706;28;20042;-40
2023/06/30 11:21:02;;;;;;;19.50;15.95;;;24.60;99.90;;;;;;5024620;28;20045;-42
2023/06/30 11:23:36;;;;;;;21.90;16.08;;;24.90;99.90;;;;;;5033997;28;20042;-41
2023/06/30 11:26:12;;;;;;;20.30;14.88;;;24.80;99.90;;;;;;5034906;28;20073;-42
2023/06/30 11:28:47;;;;;;;21.45;15.38;;;24.80;99.90;;;;;;5037033;28;20049;-41
2023/06/30 11:31:18;;;;;;;16.60;14.48;;;24.40;99.90;;;;;;5015611;28;20065;-41
2023/06/30 11:33:46;;;;;;;19.27;14.55;;;24.10;99.90;;;;;;5024421;28;20494;-40
2023/06/30 11:36:14;;;;;;;16.17;14.00;;;23.90;99.90;;;;;;5027807;28;20111;-42
2023/06/30 11:38:48;;;;;;;15.70;12.70;;;23.50;99.90;;;;;;5032015;28;20042;-42
2023/06/30 11:41:23;;;;;;;18.55;13.88;;;23.20;99.90;;;;;;5033638;28;20087;-43
2023/06/30 11:43:58;;;;;;;17.45;13.52;;;22.80;99.90;;;;;;5023789;28;20052;-38
2023/06/30 11:46:27;;;;;;;16.00;13.25;;;22.60;99.90;;;;;;5024082;28;20050;-44
2023/06/30 11:48:56;;;;;;;16.17;13.35;;;22.50;99.90;;;;;;5024241;28;20298;-42
2023/06/30 11:51:23;;;;;;;17.15;13.20;;;22.40;99.90;;;;;;5031035;28;20042;-44
2023/06/30 11:53:51;;;;;;;21.70;14.90;;;22.30;99.90;;;;;;5025481;28;20050;-42
2023/06/30 11:56:19;;;;;;;19.40;13.57;;;22.30;99.90;;;;;;5030349;28;20481;-42
2023/06/30 11:58:50;;;;;;;17.77;14.10;;;22.50;99.90;;;;;;5039749;28;20072;-42
2023/06/30 12:01:21;;;;;;;19.20;14.07;;;22.60;99.90;;;;;;5026382;28;20517;-42
2023/06/30 12:03:59;;;;;;;15.27;12.48;;;22.50;99.90;;;;;;5033892;28;20120;-38
2023/06/30 12:06:28;;;;;;;17.77;13.27;;;22.50;99.90;;;;;;5025945;28;20124;-40
2023/06/30 12:08:57;;;;;;;18.60;13.25;;;22.80;99.90;;;;;;5022536;28;20572;-38
2023/06/30 12:11:24;;;;;;;17.17;14.07;;;23.20;99.90;;;;;;5028968;28;20046;-41
2023/06/30 12:13:51;;;;;;;18.20;13.90;;;23.40;99.90;;;;;;5028520;28;20492;-40
2023/06/30 12:16:19;;;;;;;18.42;13.93;;;23.70;99.90;;;;;;5028574;28;20521;-41
2023/06/30 12:18:47;;;;;;;20.15;14.77;;;24.10;99.90;;;;;;5024694;28;20057;-41
2023/06/30 12:21:15;;;;;;;18.73;14.63;;;24.80;99.90;;;;;;5021038;28;20068;-41
2023/06/30 12:23:44;;;;;;;20.05;14.45;;;25.50;99.90;;;;;;5043745;28;20125;-42
2023/06/30 12:26:15;;;;;;;20.17;14.60;;;26.20;99.90;;;;;;5041582;28;20041;-41
2023/06/30 12:28:42;;;;;;;17.90;14.37;;;26.50;99.90;;;;;;5037692;28;20050;-41
2023/06/30 12:31:10;;;;;;;18.27;13.35;;;26.60;99.90;;;;;;5024721;28;20328;-38
2023/06/30 12:33:38;;;;;;;18.30;14.93;;;26.60;99.90;;;;;;5036852;28;20438;-42
2023/06/30 12:36:06;;;;;;;15.57;13.65;;;26.50;99.90;;;;;;5020859;28;20061;-40
2023/06/30 12:38:33;;;;;;;18.60;14.43;;;26.50;99.90;;;;;;5037526;28;20049;-40
2023/06/30 12:41:01;;;;;;;16.85;14.82;;;26.40;99.90;;;;;;5022493;28;20046;-42
2023/06/30 12:43:30;;;;;;;19.45;14.68;;;26.50;99.90;;;;;;5037815;28;20080;-40